首页
METAR-TAF:

METAR-TAF

机场 :

哈利法克斯罗伯特·洛恩·斯坦菲尔德国际机场

哈利法克斯, 新斯科舍, 加拿大

纬度: 44-53N, 经度: 063-30W, 海拔: 145米

当前天气观测

该预报发布于26分钟前的08:00 UTC
风速7节,风向西转西北
温度 10°C
湿度 100%
气压 1016 hPa
能見度: 24.1公里
少量云层高于300英尺
散云层高于3000英尺

METAR: CYHZ 160800Z 30007KT 15SM FEW003 SCT030 10/10 A2999 RMK SF1SC1 SLP161

时间: 05:26 (08:26 UTC)

预报

该预报发布于2小时和46分钟前的05:40 UTC
预报有效从16日的 06点(UTC)到 17日的 06点(UTC)
风速7节,风向北转西北
能見度: 10公里
少量云层高于6000英尺
短暂存在
从 16日的 06点(UTC)到 16日的 11点(UTC)
能見度: 8.0公里
散云层高于200英尺
轻雾
几率 30%
从 16日的 06点(UTC)到 16日的 09点(UTC)
能見度: 1.6公里
轻雾
从 16日的 1100点(UTC)
风速12节,风向北转西北,有时为22节阵风
能見度: 10公里
天空无云
从 16日的 1700点(UTC)
风速10节,风向北转西北,有时为20节阵风
能見度: 10公里
少量云层高于6000英尺
成为
从 16日的 22点(UTC)到 16日的 24点(UTC)
风速3节,风向多变
天空无云

TAF: CYHZ 160540Z 1606/1706 33007KT P6SM FEW060 TEMPO 1606/1611 5SM BR SCT002 PROB30 1606/1609 1SM BR FM161100 33012G22KT P6SM SKC FM161700 33010G20KT P6SM FEW060 BECMG 1622/1624 VRB03KT SKC RMK NXT FCST BY 160900Z

超过4000个机场的气象观测和天气预报(METAR&TAF报告)。

可查询的气象台以黄色和红色小点在地图上表示。

将鼠标移到小点上方,可查看气象台名称。

然后点击查看天气观测和预报。

如需切换地图:点击带黑十字的绿色按钮放大地图;点击带横线的绿色按钮缩小地图;或者点击绿色箭头查看邻近地区的地图。


METAR-TAF: